sensor_id;sensor_type;location;lat;lon;timestamp;P1;durP1;ratioP1;P2;durP2;ratioP2
70975;SDS011;58635;51.198;6.010;2022-08-02T00:00:19;4.38;;;1.60;;
70975;SDS011;58635;51.198;6.010;2022-08-02T00:02:45;4.38;;;1.75;;
70975;SDS011;58635;51.198;6.010;2022-08-02T00:05:11;4.88;;;1.88;;
70975;SDS011;58635;51.198;6.010;2022-08-02T00:07:37;3.42;;;1.45;;
70975;SDS011;58635;51.198;6.010;2022-08-02T00:10:04;5.07;;;1.75;;
70975;SDS011;58635;51.198;6.010;2022-08-02T00:12:30;5.20;;;1.70;;
70975;SDS011;58635;51.198;6.010;2022-08-02T00:14:56;5.72;;;1.60;;
70975;SDS011;58635;51.198;6.010;2022-08-02T00:17:22;2.72;;;1.27;;
70975;SDS011;58635;51.198;6.010;2022-08-02T00:19:48;4.00;;;1.58;;
70975;SDS011;58635;51.198;6.010;2022-08-02T00:22:13;3.35;;;1.70;;
70975;SDS011;58635;51.198;6.010;2022-08-02T00:24:39;3.95;;;1.70;;
70975;SDS011;58635;51.198;6.010;2022-08-02T00:27:05;4.30;;;1.70;;
70975;SDS011;58635;51.198;6.010;2022-08-02T00:29:32;4.88;;;1.85;;
70975;SDS011;58635;51.198;6.010;2022-08-02T00:31:59;3.55;;;1.45;;
70975;SDS011;58635;51.198;6.010;2022-08-02T00:34:24;5.03;;;1.70;;
70975;SDS011;58635;51.198;6.010;2022-08-02T00:36:50;4.22;;;1.67;;
70975;SDS011;58635;51.198;6.010;2022-08-02T00:39:15;3.78;;;1.73;;
70975;SDS011;58635;51.198;6.010;2022-08-02T00:41:44;4.70;;;1.63;;
70975;SDS011;58635;51.198;6.010;2022-08-02T00:44:14;3.78;;;1.83;;
70975;SDS011;58635;51.198;6.010;2022-08-02T00:46:41;4.70;;;1.90;;
70975;SDS011;58635;51.198;6.010;2022-08-02T00:49:07;4.00;;;1.52;;
70975;SDS011;58635;51.198;6.010;2022-08-02T00:51:32;3.83;;;1.55;;
70975;SDS011;58635;51.198;6.010;2022-08-02T00:53:58;4.80;;;1.60;;
70975;SDS011;58635;51.198;6.010;2022-08-02T00:56:23;3.70;;;1.50;;
70975;SDS011;58635;51.198;6.010;2022-08-02T00:58:49;3.35;;;1.58;;
70975;SDS011;58635;51.198;6.010;2022-08-02T01:01:14;3.55;;;1.55;;
70975;SDS011;58635;51.198;6.010;2022-08-02T01:03:40;5.75;;;1.65;;
70975;SDS011;58635;51.198;6.010;2022-08-02T01:06:06;4.90;;;1.88;;
70975;SDS011;58635;51.198;6.010;2022-08-02T01:08:31;5.32;;;2.10;;
70975;SDS011;58635;51.198;6.010;2022-08-02T01:10:56;6.65;;;2.05;;
70975;SDS011;58635;51.198;6.010;2022-08-02T01:13:22;4.43;;;2.00;;
70975;SDS011;58635;51.198;6.010;2022-08-02T01:15:51;6.50;;;2.00;;
70975;SDS011;58635;51.198;6.010;2022-08-02T01:18:27;6.13;;;2.00;;
70975;SDS011;58635;51.198;6.010;2022-08-02T01:26:54;5.47;;;2.20;;
70975;SDS011;58635;51.198;6.010;2022-08-02T01:29:33;7.25;;;2.40;;
70975;SDS011;58635;51.198;6.010;2022-08-02T01:32:25;5.75;;;2.35;;
70975;SDS011;58635;51.198;6.010;2022-08-02T01:35:01;7.55;;;2.95;;
70975;SDS011;58635;51.198;6.010;2022-08-02T01:40:02;9.88;;;3.30;;
70975;SDS011;58635;51.198;6.010;2022-08-02T01:42:32;7.50;;;3.33;;
70975;SDS011;58635;51.198;6.010;2022-08-02T01:45:00;8.27;;;3.42;;
70975;SDS011;58635;51.198;6.010;2022-08-02T01:47:28;11.13;;;3.80;;
70975;SDS011;58635;51.198;6.010;2022-08-02T01:49:57;10.50;;;4.00;;
70975;SDS011;58635;51.198;6.010;2022-08-02T01:52:24;12.18;;;4.00;;
70975;SDS011;58635;51.198;6.010;2022-08-02T01:57:22;9.07;;;3.65;;
70975;SDS011;58635;51.198;6.010;2022-08-02T01:59:50;7.93;;;3.50;;
70975;SDS011;58635;51.198;6.010;2022-08-02T02:02:18;14.32;;;4.07;;
70975;SDS011;58635;51.198;6.010;2022-08-02T02:04:47;11.88;;;3.40;;
70975;SDS011;58635;51.198;6.010;2022-08-02T02:07:14;9.88;;;3.72;;
70975;SDS011;58635;51.198;6.010;2022-08-02T02:09:42;9.88;;;4.18;;
70975;SDS011;58635;51.198;6.010;2022-08-02T02:12:10;10.45;;;4.30;;
70975;SDS011;58635;51.198;6.010;2022-08-02T02:14:37;7.60;;;3.75;;
70975;SDS011;58635;51.198;6.010;2022-08-02T02:17:05;11.32;;;3.70;;
70975;SDS011;58635;51.198;6.010;2022-08-02T02:19:33;6.95;;;3.40;;
70975;SDS011;58635;51.198;6.010;2022-08-02T02:22:00;8.77;;;3.25;;
70975;SDS011;58635;51.198;6.010;2022-08-02T02:24:26;7.07;;;3.15;;
70975;SDS011;58635;51.198;6.010;2022-08-02T02:26:52;10.13;;;3.30;;
70975;SDS011;58635;51.198;6.010;2022-08-02T02:29:19;7.53;;;3.58;;
70975;SDS011;58635;51.198;6.010;2022-08-02T02:31:49;7.57;;;3.15;;
70975;SDS011;58635;51.198;6.010;2022-08-02T02:34:31;6.13;;;2.63;;
70975;SDS011;58635;51.198;6.010;2022-08-02T02:37:00;6.40;;;2.30;;
70975;SDS011;58635;51.198;6.010;2022-08-02T02:39:29;5.53;;;2.42;;
70975;SDS011;58635;51.198;6.010;2022-08-02T02:41:57;5.10;;;2.45;;
70975;SDS011;58635;51.198;6.010;2022-08-02T02:44:27;5.00;;;2.13;;
70975;SDS011;58635;51.198;6.010;2022-08-02T02:46:53;7.22;;;2.40;;
70975;SDS011;58635;51.198;6.010;2022-08-02T02:49:20;5.20;;;2.00;;
70975;SDS011;58635;51.198;6.010;2022-08-02T02:51:46;4.35;;;2.17;;
70975;SDS011;58635;51.198;6.010;2022-08-02T02:54:13;5.75;;;2.15;;
70975;SDS011;58635;51.198;6.010;2022-08-02T02:56:39;6.97;;;2.20;;
70975;SDS011;58635;51.198;6.010;2022-08-02T02:59:07;4.82;;;2.00;;
70975;SDS011;58635;51.198;6.010;2022-08-02T03:01:34;3.95;;;1.85;;
70975;SDS011;58635;51.198;6.010;2022-08-02T03:04:01;4.15;;;1.95;;
70975;SDS011;58635;51.198;6.010;2022-08-02T03:06:29;5.28;;;1.90;;
70975;SDS011;58635;51.198;6.010;2022-08-02T03:08:55;5.25;;;2.00;;
70975;SDS011;58635;51.198;6.010;2022-08-02T03:11:22;4.22;;;1.90;;
70975;SDS011;58635;51.198;6.010;2022-08-02T03:13:48;5.30;;;2.20;;
70975;SDS011;58635;51.198;6.010;2022-08-02T03:16:14;5.97;;;2.30;;
70975;SDS011;58635;51.198;6.010;2022-08-02T03:18:40;3.83;;;2.00;;
70975;SDS011;58635;51.198;6.010;2022-08-02T03:21:11;4.32;;;1.90;;
70975;SDS011;58635;51.198;6.010;2022-08-02T03:23:37;9.90;;;2.47;;
70975;SDS011;58635;51.198;6.010;2022-08-02T03:26:07;5.72;;;1.90;;
70975;SDS011;58635;51.198;6.010;2022-08-02T03:28:34;4.63;;;2.10;;
70975;SDS011;58635;51.198;6.010;2022-08-02T03:31:00;6.97;;;2.22;;
70975;SDS011;58635;51.198;6.010;2022-08-02T03:33:26;6.35;;;2.00;;
70975;SDS011;58635;51.198;6.010;2022-08-02T03:35:53;6.03;;;2.17;;
70975;SDS011;58635;51.198;6.010;2022-08-02T03:38:21;6.57;;;2.30;;
70975;SDS011;58635;51.198;6.010;2022-08-02T03:40:47;5.07;;;2.17;;
70975;SDS011;58635;51.198;6.010;2022-08-02T03:43:13;5.13;;;2.00;;
70975;SDS011;58635;51.198;6.010;2022-08-02T03:45:44;5.38;;;2.45;;
70975;SDS011;58635;51.198;6.010;2022-08-02T03:48:12;4.95;;;2.50;;
70975;SDS011;58635;51.198;6.010;2022-08-02T03:51:00;8.70;;;2.85;;
70975;SDS011;58635;51.198;6.010;2022-08-02T03:53:27;5.50;;;2.67;;
70975;SDS011;58635;51.198;6.010;2022-08-02T03:55:56;5.60;;;2.53;;
70975;SDS011;58635;51.198;6.010;2022-08-02T03:58:28;7.07;;;2.88;;
70975;SDS011;58635;51.198;6.010;2022-08-02T04:00:54;7.63;;;3.17;;
70975;SDS011;58635;51.198;6.010;2022-08-02T04:03:21;9.52;;;3.78;;
70975;SDS011;58635;51.198;6.010;2022-08-02T04:05:47;8.57;;;4.13;;
70975;SDS011;58635;51.198;6.010;2022-08-02T04:08:13;10.02;;;4.43;;
70975;SDS011;58635;51.198;6.010;2022-08-02T04:10:39;9.10;;;4.28;;
70975;SDS011;58635;51.198;6.010;2022-08-02T04:13:24;10.63;;;4.43;;
70975;SDS011;58635;51.198;6.010;2022-08-02T04:15:53;10.60;;;4.43;;
70975;SDS011;58635;51.198;6.010;2022-08-02T04:18:21;13.85;;;4.25;;
70975;SDS011;58635;51.198;6.010;2022-08-02T04:21:03;9.70;;;4.53;;
70975;SDS011;58635;51.198;6.010;2022-08-02T04:23:32;10.82;;;4.22;;
70975;SDS011;58635;51.198;6.010;2022-08-02T04:26:00;8.18;;;4.00;;
70975;SDS011;58635;51.198;6.010;2022-08-02T04:28:27;7.85;;;4.13;;
70975;SDS011;58635;51.198;6.010;2022-08-02T04:30:53;10.82;;;4.45;;
70975;SDS011;58635;51.198;6.010;2022-08-02T04:33:20;10.63;;;4.60;;
70975;SDS011;58635;51.198;6.010;2022-08-02T04:35:46;10.60;;;4.40;;
70975;SDS011;58635;51.198;6.010;2022-08-02T04:38:12;8.60;;;4.25;;
70975;SDS011;58635;51.198;6.010;2022-08-02T04:40:39;10.50;;;4.78;;
70975;SDS011;58635;51.198;6.010;2022-08-02T04:43:04;11.95;;;5.10;;
70975;SDS011;58635;51.198;6.010;2022-08-02T04:45:30;10.07;;;4.60;;
70975;SDS011;58635;51.198;6.010;2022-08-02T04:47:56;8.50;;;4.47;;
70975;SDS011;58635;51.198;6.010;2022-08-02T04:50:21;10.10;;;5.15;;
70975;SDS011;58635;51.198;6.010;2022-08-02T04:52:47;14.32;;;5.25;;
70975;SDS011;58635;51.198;6.010;2022-08-02T04:55:12;8.30;;;4.60;;
70975;SDS011;58635;51.198;6.010;2022-08-02T04:57:38;13.77;;;6.30;;
70975;SDS011;58635;51.198;6.010;2022-08-02T05:00:19;16.75;;;6.53;;
70975;SDS011;58635;51.198;6.010;2022-08-02T05:02:44;17.63;;;7.35;;
70975;SDS011;58635;51.198;6.010;2022-08-02T05:05:10;20.27;;;7.47;;
70975;SDS011;58635;51.198;6.010;2022-08-02T05:07:35;21.33;;;7.50;;
70975;SDS011;58635;51.198;6.010;2022-08-02T05:10:01;18.17;;;7.00;;
70975;SDS011;58635;51.198;6.010;2022-08-02T05:12:27;22.65;;;7.03;;
70975;SDS011;58635;51.198;6.010;2022-08-02T05:14:52;16.02;;;6.22;;
70975;SDS011;58635;51.198;6.010;2022-08-02T05:17:17;11.85;;;5.15;;
70975;SDS011;58635;51.198;6.010;2022-08-02T05:19:43;13.57;;;4.97;;
70975;SDS011;58635;51.198;6.010;2022-08-02T05:22:08;11.05;;;4.28;;
70975;SDS011;58635;51.198;6.010;2022-08-02T05:24:34;8.48;;;4.10;;
70975;SDS011;58635;51.198;6.010;2022-08-02T05:26:59;8.18;;;4.32;;
70975;SDS011;58635;51.198;6.010;2022-08-02T05:29:25;9.40;;;4.03;;
70975;SDS011;58635;51.198;6.010;2022-08-02T05:31:50;8.70;;;4.50;;
70975;SDS011;58635;51.198;6.010;2022-08-02T05:34:16;9.18;;;4.60;;
70975;SDS011;58635;51.198;6.010;2022-08-02T05:36:41;7.40;;;4.47;;
70975;SDS011;58635;51.198;6.010;2022-08-02T05:39:07;8.07;;;4.93;;
70975;SDS011;58635;51.198;6.010;2022-08-02T05:41:33;7.10;;;4.22;;
70975;SDS011;58635;51.198;6.010;2022-08-02T05:43:58;7.30;;;4.03;;
70975;SDS011;58635;51.198;6.010;2022-08-02T05:46:24;7.47;;;3.90;;
70975;SDS011;58635;51.198;6.010;2022-08-02T05:48:49;8.15;;;4.25;;
70975;SDS011;58635;51.198;6.010;2022-08-02T05:51:21;7.93;;;4.07;;
70975;SDS011;58635;51.198;6.010;2022-08-02T05:54:02;8.13;;;3.80;;
70975;SDS011;58635;51.198;6.010;2022-08-02T05:56:33;8.82;;;3.88;;
70975;SDS011;58635;51.198;6.010;2022-08-02T05:59:17;6.65;;;4.10;;
70975;SDS011;58635;51.198;6.010;2022-08-02T06:01:47;8.00;;;4.20;;
70975;SDS011;58635;51.198;6.010;2022-08-02T06:04:19;10.05;;;3.88;;
70975;SDS011;58635;51.198;6.010;2022-08-02T06:06:49;8.65;;;3.85;;
70975;SDS011;58635;51.198;6.010;2022-08-02T06:09:19;16.50;;;13.35;;
70975;SDS011;58635;51.198;6.010;2022-08-02T06:11:48;8.45;;;5.70;;
70975;SDS011;58635;51.198;6.010;2022-08-02T06:14:16;7.53;;;4.43;;
70975;SDS011;58635;51.198;6.010;2022-08-02T06:16:43;8.82;;;4.80;;
70975;SDS011;58635;51.198;6.010;2022-08-02T06:19:10;7.32;;;3.90;;
70975;SDS011;58635;51.198;6.010;2022-08-02T06:21:38;7.35;;;3.90;;
70975;SDS011;58635;51.198;6.010;2022-08-02T06:24:05;6.88;;;3.47;;
70975;SDS011;58635;51.198;6.010;2022-08-02T06:26:32;5.07;;;3.75;;
70975;SDS011;58635;51.198;6.010;2022-08-02T06:29:00;6.88;;;3.65;;
70975;SDS011;58635;51.198;6.010;2022-08-02T06:31:26;7.88;;;5.60;;
70975;SDS011;58635;51.198;6.010;2022-08-02T06:33:52;9.63;;;4.50;;
70975;SDS011;58635;51.198;6.010;2022-08-02T06:36:18;6.53;;;4.03;;
70975;SDS011;58635;51.198;6.010;2022-08-02T06:38:55;8.10;;;3.65;;
70975;SDS011;58635;51.198;6.010;2022-08-02T06:41:30;7.40;;;3.30;;
70975;SDS011;58635;51.198;6.010;2022-08-02T06:44:03;7.72;;;3.50;;
70975;SDS011;58635;51.198;6.010;2022-08-02T06:46:29;7.65;;;3.42;;
70975;SDS011;58635;51.198;6.010;2022-08-02T06:48:55;6.30;;;4.10;;
70975;SDS011;58635;51.198;6.010;2022-08-02T06:51:21;6.13;;;3.60;;
70975;SDS011;58635;51.198;6.010;2022-08-02T06:53:47;5.80;;;3.70;;
70975;SDS011;58635;51.198;6.010;2022-08-02T06:56:13;5.85;;;3.70;;
70975;SDS011;58635;51.198;6.010;2022-08-02T06:58:38;8.68;;;5.70;;
70975;SDS011;58635;51.198;6.010;2022-08-02T07:01:04;7.72;;;5.90;;
70975;SDS011;58635;51.198;6.010;2022-08-02T07:03:32;8.85;;;5.90;;
70975;SDS011;58635;51.198;6.010;2022-08-02T07:05:58;6.95;;;4.22;;
70975;SDS011;58635;51.198;6.010;2022-08-02T07:08:23;7.15;;;4.28;;
70975;SDS011;58635;51.198;6.010;2022-08-02T07:10:50;6.80;;;4.40;;
70975;SDS011;58635;51.198;6.010;2022-08-02T07:13:15;7.65;;;4.90;;
70975;SDS011;58635;51.198;6.010;2022-08-02T07:15:41;31.52;;;28.23;;
70975;SDS011;58635;51.198;6.010;2022-08-02T07:18:06;9.65;;;6.65;;
70975;SDS011;58635;51.198;6.010;2022-08-02T07:20:32;10.07;;;6.70;;
70975;SDS011;58635;51.198;6.010;2022-08-02T07:22:58;25.40;;;21.38;;
70975;SDS011;58635;51.198;6.010;2022-08-02T07:25:23;18.17;;;15.70;;
70975;SDS011;58635;51.198;6.010;2022-08-02T07:27:49;12.85;;;10.93;;
70975;SDS011;58635;51.198;6.010;2022-08-02T07:30:14;18.45;;;12.82;;
70975;SDS011;58635;51.198;6.010;2022-08-02T07:32:39;22.52;;;20.10;;
70975;SDS011;58635;51.198;6.010;2022-08-02T07:35:05;13.55;;;6.53;;
70975;SDS011;58635;51.198;6.010;2022-08-02T07:37:32;19.38;;;14.95;;
70975;SDS011;58635;51.198;6.010;2022-08-02T07:39:59;10.80;;;6.57;;
70975;SDS011;58635;51.198;6.010;2022-08-02T07:42:25;8.02;;;4.40;;
70975;SDS011;58635;51.198;6.010;2022-08-02T07:44:50;5.28;;;4.15;;
70975;SDS011;58635;51.198;6.010;2022-08-02T07:47:16;7.78;;;4.65;;
70975;SDS011;58635;51.198;6.010;2022-08-02T07:49:43;7.03;;;4.63;;
70975;SDS011;58635;51.198;6.010;2022-08-02T07:52:08;6.93;;;4.10;;
70975;SDS011;58635;51.198;6.010;2022-08-02T07:54:34;6.75;;;3.63;;
70975;SDS011;58635;51.198;6.010;2022-08-02T07:56:59;6.10;;;3.60;;
70975;SDS011;58635;51.198;6.010;2022-08-02T07:59:25;6.80;;;3.38;;
70975;SDS011;58635;51.198;6.010;2022-08-02T08:01:51;7.53;;;4.18;;
70975;SDS011;58635;51.198;6.010;2022-08-02T08:04:17;7.88;;;4.03;;
70975;SDS011;58635;51.198;6.010;2022-08-02T08:06:44;7.18;;;4.47;;
70975;SDS011;58635;51.198;6.010;2022-08-02T08:09:13;7.50;;;3.97;;
70975;SDS011;58635;51.198;6.010;2022-08-02T08:11:39;9.95;;;8.63;;
70975;SDS011;58635;51.198;6.010;2022-08-02T08:14:04;6.90;;;4.22;;
70975;SDS011;58635;51.198;6.010;2022-08-02T08:16:31;7.38;;;5.88;;
70975;SDS011;58635;51.198;6.010;2022-08-02T08:18:56;6.68;;;3.30;;
70975;SDS011;58635;51.198;6.010;2022-08-02T08:21:31;7.15;;;3.53;;
70975;SDS011;58635;51.198;6.010;2022-08-02T08:24:05;9.93;;;3.70;;
70975;SDS011;58635;51.198;6.010;2022-08-02T08:26:31;5.15;;;3.15;;
70975;SDS011;58635;51.198;6.010;2022-08-02T08:28:56;5.55;;;3.38;;
70975;SDS011;58635;51.198;6.010;2022-08-02T08:31:22;5.68;;;3.75;;
70975;SDS011;58635;51.198;6.010;2022-08-02T08:33:53;5.82;;;2.95;;
70975;SDS011;58635;51.198;6.010;2022-08-02T08:36:19;6.85;;;3.70;;
70975;SDS011;58635;51.198;6.010;2022-08-02T08:38:45;19.15;;;16.00;;
70975;SDS011;58635;51.198;6.010;2022-08-02T08:41:11;4.70;;;3.60;;
70975;SDS011;58635;51.198;6.010;2022-08-02T08:43:36;6.20;;;4.78;;
70975;SDS011;58635;51.198;6.010;2022-08-02T08:46:01;5.53;;;3.10;;
70975;SDS011;58635;51.198;6.010;2022-08-02T08:48:28;6.70;;;3.10;;
70975;SDS011;58635;51.198;6.010;2022-08-02T08:51:04;6.28;;;2.85;;
70975;SDS011;58635;51.198;6.010;2022-08-02T08:53:36;6.68;;;3.40;;
70975;SDS011;58635;51.198;6.010;2022-08-02T08:56:04;5.35;;;3.00;;
70975;SDS011;58635;51.198;6.010;2022-08-02T08:58:30;5.25;;;2.83;;
70975;SDS011;58635;51.198;6.010;2022-08-02T09:00:55;5.15;;;2.90;;
70975;SDS011;58635;51.198;6.010;2022-08-02T09:03:21;4.30;;;3.08;;
70975;SDS011;58635;51.198;6.010;2022-08-02T09:05:46;9.55;;;8.57;;
70975;SDS011;58635;51.198;6.010;2022-08-02T09:08:12;5.70;;;4.40;;
70975;SDS011;58635;51.198;6.010;2022-08-02T09:13:09;5.03;;;2.85;;
70975;SDS011;58635;51.198;6.010;2022-08-02T09:15:37;6.63;;;3.00;;
70975;SDS011;58635;51.198;6.010;2022-08-02T09:18:04;4.50;;;2.95;;
70975;SDS011;58635;51.198;6.010;2022-08-02T09:20:33;4.90;;;2.60;;
70975;SDS011;58635;51.198;6.010;2022-08-02T09:23:14;4.93;;;2.30;;
70975;SDS011;58635;51.198;6.010;2022-08-02T09:25:39;5.63;;;2.42;;
70975;SDS011;58635;51.198;6.010;2022-08-02T09:28:05;4.32;;;2.60;;
70975;SDS011;58635;51.198;6.010;2022-08-02T09:30:31;5.50;;;3.08;;
70975;SDS011;58635;51.198;6.010;2022-08-02T09:32:57;5.15;;;2.50;;
70975;SDS011;58635;51.198;6.010;2022-08-02T09:35:33;3.40;;;1.98;;
70975;SDS011;58635;51.198;6.010;2022-08-02T09:38:10;3.97;;;2.25;;
70975;SDS011;58635;51.198;6.010;2022-08-02T09:40:37;5.60;;;2.40;;
70975;SDS011;58635;51.198;6.010;2022-08-02T09:43:04;4.80;;;2.22;;
70975;SDS011;58635;51.198;6.010;2022-08-02T09:45:32;5.13;;;2.20;;
70975;SDS011;58635;51.198;6.010;2022-08-02T09:48:01;5.80;;;3.70;;
70975;SDS011;58635;51.198;6.010;2022-08-02T09:50:30;7.30;;;4.53;;
70975;SDS011;58635;51.198;6.010;2022-08-02T09:52:55;3.45;;;2.10;;
70975;SDS011;58635;51.198;6.010;2022-08-02T09:55:22;3.78;;;2.40;;
70975;SDS011;58635;51.198;6.010;2022-08-02T09:57:48;6.70;;;2.38;;
70975;SDS011;58635;51.198;6.010;2022-08-02T10:00:13;3.90;;;1.90;;
70975;SDS011;58635;51.198;6.010;2022-08-02T10:02:39;3.58;;;2.00;;
70975;SDS011;58635;51.198;6.010;2022-08-02T10:05:28;4.35;;;1.90;;
70975;SDS011;58635;51.198;6.010;2022-08-02T10:07:54;3.63;;;1.85;;
70975;SDS011;58635;51.198;6.010;2022-08-02T10:10:20;6.15;;;2.20;;
70975;SDS011;58635;51.198;6.010;2022-08-02T10:12:46;5.80;;;2.22;;
70975;SDS011;58635;51.198;6.010;2022-08-02T10:15:11;2.95;;;1.80;;
70975;SDS011;58635;51.198;6.010;2022-08-02T10:17:37;5.97;;;2.03;;
70975;SDS011;58635;51.198;6.010;2022-08-02T10:20:03;6.35;;;2.00;;
70975;SDS011;58635;51.198;6.010;2022-08-02T10:22:29;5.20;;;2.00;;
70975;SDS011;58635;51.198;6.010;2022-08-02T10:24:56;3.05;;;2.10;;
70975;SDS011;58635;51.198;6.010;2022-08-02T10:27:21;3.20;;;1.85;;
70975;SDS011;58635;51.198;6.010;2022-08-02T10:29:49;4.40;;;1.85;;
70975;SDS011;58635;51.198;6.010;2022-08-02T10:32:18;2.67;;;1.90;;
70975;SDS011;58635;51.198;6.010;2022-08-02T10:34:52;5.18;;;2.08;;
70975;SDS011;58635;51.198;6.010;2022-08-02T10:37:22;5.63;;;2.17;;
70975;SDS011;58635;51.198;6.010;2022-08-02T10:39:56;6.75;;;2.10;;
70975;SDS011;58635;51.198;6.010;2022-08-02T10:45:09;4.35;;;2.10;;
70975;SDS011;58635;51.198;6.010;2022-08-02T10:47:36;3.63;;;2.00;;
70975;SDS011;58635;51.198;6.010;2022-08-02T10:50:02;3.22;;;1.83;;
70975;SDS011;58635;51.198;6.010;2022-08-02T10:52:28;5.25;;;2.15;;
70975;SDS011;58635;51.198;6.010;2022-08-02T10:54:58;2.83;;;1.70;;
70975;SDS011;58635;51.198;6.010;2022-08-02T10:57:26;3.35;;;1.88;;
70975;SDS011;58635;51.198;6.010;2022-08-02T11:00:02;4.05;;;2.00;;
70975;SDS011;58635;51.198;6.010;2022-08-02T11:07:48;4.47;;;2.53;;
70975;SDS011;58635;51.198;6.010;2022-08-02T11:13:07;3.45;;;2.03;;
70975;SDS011;58635;51.198;6.010;2022-08-02T11:15:49;4.47;;;1.80;;
70975;SDS011;58635;51.198;6.010;2022-08-02T11:18:18;4.70;;;1.63;;
70975;SDS011;58635;51.198;6.010;2022-08-02T11:20:44;8.05;;;1.75;;
70975;SDS011;58635;51.198;6.010;2022-08-02T11:25:59;5.03;;;2.08;;
70975;SDS011;58635;51.198;6.010;2022-08-02T11:28:24;3.97;;;1.88;;
70975;SDS011;58635;51.198;6.010;2022-08-02T11:30:57;2.65;;;1.92;;
70975;SDS011;58635;51.198;6.010;2022-08-02T11:33:31;2.83;;;1.45;;
70975;SDS011;58635;51.198;6.010;2022-08-02T11:36:04;3.53;;;1.80;;
70975;SDS011;58635;51.198;6.010;2022-08-02T11:38:31;2.65;;;1.88;;
70975;SDS011;58635;51.198;6.010;2022-08-02T11:40:56;3.58;;;1.88;;
70975;SDS011;58635;51.198;6.010;2022-08-02T11:43:23;3.28;;;1.90;;
70975;SDS011;58635;51.198;6.010;2022-08-02T11:45:51;2.70;;;1.80;;
70975;SDS011;58635;51.198;6.010;2022-08-02T11:48:31;3.00;;;2.28;;
70975;SDS011;58635;51.198;6.010;2022-08-02T11:51:05;3.70;;;1.75;;
70975;SDS011;58635;51.198;6.010;2022-08-02T11:56:08;2.17;;;1.60;;
70975;SDS011;58635;51.198;6.010;2022-08-02T11:58:34;3.88;;;2.00;;
70975;SDS011;58635;51.198;6.010;2022-08-02T12:00:59;3.97;;;2.00;;
70975;SDS011;58635;51.198;6.010;2022-08-02T12:03:25;5.88;;;1.85;;
70975;SDS011;58635;51.198;6.010;2022-08-02T12:05:51;7.38;;;6.40;;
70975;SDS011;58635;51.198;6.010;2022-08-02T12:08:17;5.25;;;2.63;;
70975;SDS011;58635;51.198;6.010;2022-08-02T12:10:46;3.78;;;2.00;;
70975;SDS011;58635;51.198;6.010;2022-08-02T12:13:12;4.32;;;1.63;;
70975;SDS011;58635;51.198;6.010;2022-08-02T12:15:39;5.00;;;1.70;;
70975;SDS011;58635;51.198;6.010;2022-08-02T12:18:29;4.10;;;1.80;;
70975;SDS011;58635;51.198;6.010;2022-08-02T12:21:25;4.47;;;1.83;;
70975;SDS011;58635;51.198;6.010;2022-08-02T12:23:51;4.03;;;1.90;;
70975;SDS011;58635;51.198;6.010;2022-08-02T12:26:17;2.53;;;1.52;;
70975;SDS011;58635;51.198;6.010;2022-08-02T12:28:43;3.70;;;1.85;;
70975;SDS011;58635;51.198;6.010;2022-08-02T12:31:09;4.30;;;1.65;;
70975;SDS011;58635;51.198;6.010;2022-08-02T12:36:16;2.50;;;1.70;;
70975;SDS011;58635;51.198;6.010;2022-08-02T12:38:50;5.30;;;1.58;;
70975;SDS011;58635;51.198;6.010;2022-08-02T12:41:20;8.50;;;2.50;;
70975;SDS011;58635;51.198;6.010;2022-08-02T12:43:46;3.90;;;2.50;;
70975;SDS011;58635;51.198;6.010;2022-08-02T12:46:14;4.63;;;2.40;;
70975;SDS011;58635;51.198;6.010;2022-08-02T12:48:44;4.00;;;1.60;;
70975;SDS011;58635;51.198;6.010;2022-08-02T12:54:13;5.03;;;1.50;;
70975;SDS011;58635;51.198;6.010;2022-08-02T12:56:41;6.55;;;1.60;;
70975;SDS011;58635;51.198;6.010;2022-08-02T12:59:07;5.38;;;1.40;;
70975;SDS011;58635;51.198;6.010;2022-08-02T13:01:33;3.38;;;1.52;;
70975;SDS011;58635;51.198;6.010;2022-08-02T13:03:59;2.60;;;1.40;;
70975;SDS011;58635;51.198;6.010;2022-08-02T13:06:25;4.50;;;1.60;;
70975;SDS011;58635;51.198;6.010;2022-08-02T13:08:51;1.80;;;1.25;;
70975;SDS011;58635;51.198;6.010;2022-08-02T13:11:18;2.88;;;1.17;;
70975;SDS011;58635;51.198;6.010;2022-08-02T13:13:45;2.58;;;1.40;;
70975;SDS011;58635;51.198;6.010;2022-08-02T13:16:10;2.65;;;1.33;;
70975;SDS011;58635;51.198;6.010;2022-08-02T13:18:36;2.55;;;1.55;;
70975;SDS011;58635;51.198;6.010;2022-08-02T13:21:01;4.65;;;1.48;;
70975;SDS011;58635;51.198;6.010;2022-08-02T13:23:31;2.63;;;1.30;;
70975;SDS011;58635;51.198;6.010;2022-08-02T13:25:58;4.78;;;1.40;;
70975;SDS011;58635;51.198;6.010;2022-08-02T13:28:24;3.25;;;1.40;;
70975;SDS011;58635;51.198;6.010;2022-08-02T13:30:50;2.58;;;1.38;;
70975;SDS011;58635;51.198;6.010;2022-08-02T13:33:16;4.72;;;1.30;;
70975;SDS011;58635;51.198;6.010;2022-08-02T13:35:41;3.28;;;1.23;;
70975;SDS011;58635;51.198;6.010;2022-08-02T13:38:08;1.85;;;1.23;;
70975;SDS011;58635;51.198;6.010;2022-08-02T13:40:33;2.03;;;1.20;;
70975;SDS011;58635;51.198;6.010;2022-08-02T13:43:19;4.43;;;1.20;;
70975;SDS011;58635;51.198;6.010;2022-08-02T13:45:44;2.13;;;1.20;;
70975;SDS011;58635;51.198;6.010;2022-08-02T13:48:10;1.98;;;1.35;;
70975;SDS011;58635;51.198;6.010;2022-08-02T13:50:36;2.35;;;1.45;;
70975;SDS011;58635;51.198;6.010;2022-08-02T13:53:02;2.67;;;1.48;;
70975;SDS011;58635;51.198;6.010;2022-08-02T13:55:27;2.38;;;1.40;;
70975;SDS011;58635;51.198;6.010;2022-08-02T13:57:53;3.10;;;1.48;;
70975;SDS011;58635;51.198;6.010;2022-08-02T14:00:19;2.55;;;1.40;;
70975;SDS011;58635;51.198;6.010;2022-08-02T14:02:44;1.98;;;1.20;;
70975;SDS011;58635;51.198;6.010;2022-08-02T14:05:10;3.10;;;1.25;;
70975;SDS011;58635;51.198;6.010;2022-08-02T14:07:35;2.22;;;1.30;;
70975;SDS011;58635;51.198;6.010;2022-08-02T14:10:00;2.83;;;1.23;;
70975;SDS011;58635;51.198;6.010;2022-08-02T14:12:26;2.97;;;1.33;;
70975;SDS011;58635;51.198;6.010;2022-08-02T14:14:51;3.53;;;1.10;;
70975;SDS011;58635;51.198;6.010;2022-08-02T14:17:17;2.28;;;1.30;;
70975;SDS011;58635;51.198;6.010;2022-08-02T14:19:42;3.38;;;1.38;;
70975;SDS011;58635;51.198;6.010;2022-08-02T14:22:08;3.47;;;1.30;;
70975;SDS011;58635;51.198;6.010;2022-08-02T14:24:33;2.22;;;1.05;;
70975;SDS011;58635;51.198;6.010;2022-08-02T14:27:00;1.92;;;1.20;;
70975;SDS011;58635;51.198;6.010;2022-08-02T14:29:26;2.17;;;1.17;;
70975;SDS011;58635;51.198;6.010;2022-08-02T14:31:51;4.63;;;1.30;;
70975;SDS011;58635;51.198;6.010;2022-08-02T14:34:17;3.38;;;1.30;;
70975;SDS011;58635;51.198;6.010;2022-08-02T14:36:42;3.47;;;1.38;;
70975;SDS011;58635;51.198;6.010;2022-08-02T14:39:08;2.78;;;1.30;;
70975;SDS011;58635;51.198;6.010;2022-08-02T14:41:34;3.88;;;1.20;;
70975;SDS011;58635;51.198;6.010;2022-08-02T14:44:01;2.05;;;1.13;;
70975;SDS011;58635;51.198;6.010;2022-08-02T14:46:27;4.15;;;1.40;;
70975;SDS011;58635;51.198;6.010;2022-08-02T14:48:53;4.20;;;1.40;;
70975;SDS011;58635;51.198;6.010;2022-08-02T14:51:19;1.88;;;1.17;;
70975;SDS011;58635;51.198;6.010;2022-08-02T14:53:44;2.75;;;1.20;;
70975;SDS011;58635;51.198;6.010;2022-08-02T14:56:09;2.10;;;1.20;;
70975;SDS011;58635;51.198;6.010;2022-08-02T14:58:35;2.83;;;0.95;;
70975;SDS011;58635;51.198;6.010;2022-08-02T15:01:01;1.73;;;0.93;;
70975;SDS011;58635;51.198;6.010;2022-08-02T15:03:26;3.53;;;1.25;;
70975;SDS011;58635;51.198;6.010;2022-08-02T15:05:52;2.88;;;1.30;;
70975;SDS011;58635;51.198;6.010;2022-08-02T15:08:17;2.20;;;1.20;;
70975;SDS011;58635;51.198;6.010;2022-08-02T15:10:43;2.53;;;1.00;;
70975;SDS011;58635;51.198;6.010;2022-08-02T15:13:09;2.95;;;1.30;;
70975;SDS011;58635;51.198;6.010;2022-08-02T15:15:34;2.83;;;1.20;;
70975;SDS011;58635;51.198;6.010;2022-08-02T15:18:00;5.18;;;1.27;;
70975;SDS011;58635;51.198;6.010;2022-08-02T15:20:25;3.10;;;1.20;;
70975;SDS011;58635;51.198;6.010;2022-08-02T15:22:51;2.97;;;1.20;;